createdAt,value
2019-01-09T00:01:10.774Z,76.35
2019-01-09T00:03:21.812Z,76.46
2019-01-09T00:05:32.619Z,76.44
2019-01-09T00:07:43.554Z,76.79
2019-01-09T00:09:54.351Z,77.48
2019-01-09T00:12:05.195Z,78.07
2019-01-09T00:14:15.980Z,77.77
2019-01-09T00:16:26.811Z,77.87
2019-01-09T00:18:37.608Z,77.92
2019-01-09T00:20:48.438Z,78.15
2019-01-09T00:22:59.228Z,77.72
2019-01-09T00:25:10.040Z,77.55
2019-01-09T00:27:20.866Z,77.43
2019-01-09T00:29:31.666Z,77.49
2019-01-09T00:31:42.502Z,77.49
2019-01-09T00:36:25.660Z,77.71
2019-01-09T00:38:36.496Z,77.52
2019-01-09T00:40:47.423Z,77.01
2019-01-09T00:42:58.347Z,77.30
2019-01-09T00:45:09.243Z,76.43
2019-01-09T00:47:20.065Z,76.31
2019-01-09T00:49:30.967Z,76.75
2019-01-09T00:51:41.864Z,76.13
2019-01-09T00:53:52.671Z,76.02
2019-01-09T00:56:03.461Z,76.10
2019-01-09T00:58:14.399Z,76.32
2019-01-09T01:00:25.204Z,76.67
2019-01-09T01:03:15.763Z,77.17
2019-01-09T01:06:06.297Z,77.06
2019-01-09T01:08:56.845Z,77.46
2019-01-09T01:11:49.298Z,77.96
2019-01-09T01:14:39.940Z,78.49
2019-01-09T01:17:32.375Z,78.82
2019-01-09T01:20:04.956Z,79.14
2019-01-09T01:22:37.548Z,79.12
2019-01-09T01:25:28.107Z,79.24
2019-01-09T01:28:20.544Z,79.36
2019-01-09T01:31:12.995Z,79.48
2019-01-09T01:34:05.452Z,79.68
2019-01-09T01:36:38.042Z,79.62
2019-01-09T01:39:28.635Z,79.50
2019-01-09T01:42:21.112Z,79.75
2019-01-09T01:45:13.602Z,79.68
2019-01-09T01:47:46.190Z,80.13
2019-01-09T01:50:18.764Z,80.22
2019-01-09T01:53:14.241Z,80.51
2019-01-09T01:56:04.783Z,80.46
2019-01-09T01:58:37.377Z,80.54
2019-01-09T02:01:29.811Z,80.88
2019-01-09T02:04:22.271Z,81.35
2019-01-09T02:06:54.866Z,81.69
2019-01-09T02:09:47.326Z,82.19
2019-01-09T02:12:39.798Z,82.54
2019-01-09T02:15:30.326Z,83.14
2019-01-09T02:18:22.802Z,83.20
2019-01-09T02:21:13.366Z,83.32
2019-01-09T02:24:05.819Z,83.34
2019-01-09T02:26:38.393Z,83.51
2019-01-09T02:29:28.969Z,83.33
2019-01-09T02:32:21.422Z,83.27
2019-01-09T02:34:32.241Z,82.99
2019-01-09T02:36:43.047Z,82.51
2019-01-09T02:38:53.870Z,82.37
2019-01-09T02:41:04.669Z,82.39
2019-01-09T02:43:15.457Z,82.29
2019-01-09T02:45:26.283Z,82.28
2019-01-09T02:47:37.066Z,82.04
2019-01-09T02:52:26.722Z,82.49
2019-01-09T02:54:37.540Z,82.80
2019-01-09T02:56:48.360Z,83.24
2019-01-09T02:58:59.270Z,83.55
2019-01-09T03:01:10.098Z,83.55
2019-01-09T03:03:20.889Z,84.26
2019-01-09T03:05:31.694Z,84.62
2019-01-09T03:07:42.529Z,84.79
2019-01-09T03:09:53.351Z,84.87
2019-01-09T03:12:04.160Z,84.70
2019-01-09T03:14:15.001Z,84.82
2019-01-09T03:16:25.807Z,84.93
2019-01-09T03:18:36.608Z,85.07
2019-01-09T03:20:47.425Z,84.92
2019-01-09T03:22:58.235Z,85.08
2019-01-09T03:25:09.059Z,85.06
2019-01-09T03:27:19.868Z,85.22
2019-01-09T03:29:30.682Z,85.06
2019-01-09T03:31:41.487Z,85.00
2019-01-09T03:33:52.298Z,85.01
2019-01-09T03:36:03.159Z,85.16
2019-01-09T03:38:13.971Z,85.16
2019-01-09T03:40:24.768Z,85.21
2019-01-09T03:42:35.682Z,84.51
2019-01-09T03:44:46.485Z,84.30
2019-01-09T03:46:57.326Z,84.06
2019-01-09T03:49:08.136Z,84.18
2019-01-09T03:51:18.970Z,83.97
2019-01-09T03:53:29.789Z,83.98
2019-01-09T03:55:40.641Z,84.49
2019-01-09T03:57:51.536Z,84.84
2019-01-09T04:00:24.140Z,85.24
2019-01-09T04:02:34.936Z,85.30
2019-01-09T04:04:45.730Z,85.55
2019-01-09T04:06:56.561Z,85.77
2019-01-09T04:09:07.354Z,85.84
2019-01-09T04:11:18.164Z,85.84
2019-01-09T04:13:28.953Z,85.97
2019-01-09T04:15:39.955Z,86.10
2019-01-09T04:17:50.770Z,85.97
2019-01-09T04:20:01.690Z,86.04
2019-01-09T04:22:12.475Z,86.22
2019-01-09T04:24:23.280Z,86.31
2019-01-09T04:26:34.101Z,86.29
2019-01-09T04:28:44.906Z,86.36
2019-01-09T04:30:55.716Z,86.65
2019-01-09T04:33:06.526Z,86.70
2019-01-09T04:35:17.314Z,86.68
2019-01-09T04:37:28.117Z,86.63
2019-01-09T04:39:38.916Z,86.95
2019-01-09T04:41:49.728Z,87.11
2019-01-09T04:44:00.525Z,87.11
2019-01-09T04:46:11.317Z,87.25
2019-01-09T04:48:22.131Z,87.41
2019-01-09T04:50:32.933Z,87.50
2019-01-09T04:52:43.755Z,87.55
2019-01-09T04:54:54.545Z,87.61
2019-01-09T04:57:05.374Z,87.63
2019-01-09T04:59:16.193Z,87.63
2019-01-09T05:01:26.982Z,87.38
2019-01-09T05:03:37.908Z,87.32
2019-01-09T05:05:48.712Z,87.26
2019-01-09T05:07:59.518Z,87.22
2019-01-09T05:10:10.318Z,87.32
2019-01-09T05:12:21.174Z,87.09
2019-01-09T05:14:31.961Z,86.65
2019-01-09T05:16:42.757Z,86.64
2019-01-09T05:18:53.577Z,86.47
2019-01-09T05:21:04.394Z,86.29
2019-01-09T05:23:15.185Z,86.19
2019-01-09T05:25:25.968Z,86.09
2019-01-09T05:27:36.773Z,85.92
2019-01-09T05:29:47.601Z,85.93
2019-01-09T05:31:58.438Z,85.89
2019-01-09T05:34:09.253Z,85.99
2019-01-09T05:36:20.077Z,85.86
2019-01-09T05:38:30.904Z,85.76
2019-01-09T05:40:41.714Z,85.83
2019-01-09T05:42:52.520Z,85.74
2019-01-09T05:45:03.341Z,85.42
2019-01-09T05:47:14.141Z,85.57
2019-01-09T05:49:24.976Z,85.53
2019-01-09T05:51:35.776Z,85.45
2019-01-09T05:53:46.566Z,85.59
2019-01-09T05:55:57.381Z,85.68
2019-01-09T05:58:08.179Z,86.03
2019-01-09T06:00:19.010Z,86.37
2019-01-09T06:02:29.825Z,86.13
2019-01-09T06:04:40.641Z,86.48
2019-01-09T06:06:51.448Z,86.53
2019-01-09T06:09:43.922Z,86.39
2019-01-09T06:11:54.742Z,86.23
2019-01-09T06:14:05.534Z,85.98
2019-01-09T06:16:16.335Z,85.97
2019-01-09T06:18:27.144Z,86.22
2019-01-09T06:20:37.947Z,86.12
2019-01-09T06:22:48.900Z,86.19
2019-01-09T06:24:59.701Z,86.22
2019-01-09T06:27:10.522Z,86.04
2019-01-09T06:29:21.370Z,85.67
2019-01-09T06:31:32.176Z,85.71
2019-01-09T06:33:42.975Z,85.46
2019-01-09T06:35:53.769Z,90.02
2019-01-09T06:38:04.606Z,87.08
2019-01-09T06:40:15.410Z,83.23
2019-01-09T06:42:26.240Z,82.44
2019-01-09T06:44:37.030Z,82.54
2019-01-09T06:46:47.848Z,83.14
2019-01-09T06:48:58.640Z,83.38
2019-01-09T06:51:09.465Z,83.67
2019-01-09T06:53:20.308Z,84.07
2019-01-09T06:55:31.135Z,84.25
2019-01-09T06:57:41.917Z,84.19
2019-01-09T06:59:52.721Z,84.22
2019-01-09T07:02:03.556Z,84.06
2019-01-09T07:04:14.352Z,83.89
2019-01-09T07:06:25.135Z,83.73
2019-01-09T07:08:35.968Z,83.21
2019-01-09T07:10:46.755Z,83.08
2019-01-09T07:12:57.585Z,82.80
2019-01-09T07:15:11.748Z,82.81
2019-01-09T07:17:21.104Z,83.17
2019-01-09T07:19:31.898Z,83.41
2019-01-09T07:21:45.600Z,83.62
2019-01-09T07:23:55.408Z,83.70
2019-01-09T07:26:06.234Z,83.88
2019-01-09T07:28:36.937Z,84.20
2019-01-09T07:30:47.784Z,84.20
2019-01-09T07:32:58.578Z,83.93
2019-01-09T07:35:09.422Z,84.03
2019-01-09T07:37:20.210Z,84.54
2019-01-09T07:39:31.031Z,84.67
2019-01-09T07:41:41.829Z,84.42
2019-01-09T07:43:52.666Z,84.37
2019-01-09T07:46:03.543Z,84.14
2019-01-09T07:48:14.264Z,84.17
2019-01-09T07:50:25.077Z,84.03
2019-01-09T07:52:35.879Z,83.95
2019-01-09T07:54:46.696Z,83.93
2019-01-09T07:56:57.491Z,84.28
2019-01-09T07:59:08.325Z,84.11
2019-01-09T08:01:19.143Z,84.15
2019-01-09T08:03:29.945Z,84.18
2019-01-09T08:05:40.758Z,84.20
2019-01-09T08:07:54.185Z,84.08
2019-01-09T08:10:45.944Z,84.10
2019-01-09T08:12:56.770Z,84.17
2019-01-09T08:15:07.750Z,83.44
2019-01-09T08:17:19.095Z,83.69
2019-01-09T08:19:29.913Z,83.81
2019-01-09T08:21:40.732Z,83.70
2019-01-09T08:23:51.539Z,83.63
2019-01-09T08:26:02.477Z,84.04
2019-01-09T08:28:13.267Z,84.21
2019-01-09T08:30:24.101Z,84.21
2019-01-09T08:32:35.018Z,83.90
2019-01-09T08:34:45.802Z,84.00
2019-01-09T08:36:56.628Z,83.84
2019-01-09T08:39:07.442Z,83.19
2019-01-09T08:41:18.388Z,83.19
2019-01-09T08:43:29.232Z,83.95
2019-01-09T08:45:40.043Z,84.19
2019-01-09T08:47:50.974Z,84.40
2019-01-09T08:50:23.533Z,84.61
2019-01-09T08:52:34.345Z,84.69
2019-01-09T08:54:45.140Z,84.94
2019-01-09T08:56:55.967Z,84.94
2019-01-09T08:59:06.755Z,84.71
2019-01-09T09:01:17.546Z,83.86
2019-01-09T09:03:28.358Z,83.89
2019-01-09T09:05:39.154Z,83.73
2019-01-09T09:08:31.638Z,83.94
2019-01-09T09:10:42.422Z,84.28
2019-01-09T09:12:53.253Z,84.26
2019-01-09T09:15:45.695Z,83.93
2019-01-09T09:17:56.606Z,83.93
2019-01-09T09:20:49.042Z,83.79
2019-01-09T09:22:59.850Z,82.51
2019-01-09T09:25:10.657Z,82.23
2019-01-09T09:27:21.545Z,82.72
2019-01-09T09:29:32.389Z,82.49
2019-01-09T09:31:43.179Z,82.54
2019-01-09T09:33:54.011Z,82.43
2019-01-09T09:36:12.104Z,82.44
2019-01-09T09:38:22.938Z,82.26
2019-01-09T09:40:33.744Z,81.93
2019-01-09T09:42:44.572Z,81.75
2019-01-09T09:44:55.489Z,81.53
2019-01-09T09:47:06.268Z,80.95
2019-01-09T09:49:17.120Z,80.70
2019-01-09T09:51:27.907Z,80.49
2019-01-09T09:53:38.729Z,80.98
2019-01-09T09:55:49.550Z,80.60
2019-01-09T09:58:05.604Z,80.02
2019-01-09T10:00:54.708Z,80.06
2019-01-09T10:03:05.495Z,79.70
2019-01-09T10:05:16.321Z,79.89
2019-01-09T10:07:27.110Z,79.26
2019-01-09T10:09:37.913Z,79.26
2019-01-09T10:11:48.735Z,78.56
2019-01-09T10:13:59.567Z,78.91
2019-01-09T10:16:10.381Z,78.04
2019-01-09T10:18:21.174Z,77.19
2019-01-09T10:20:31.993Z,77.58
2019-01-09T10:23:04.696Z,78.32
2019-01-09T10:25:15.502Z,78.04
2019-01-09T10:27:26.289Z,77.08
2019-01-09T10:29:37.110Z,76.98
2019-01-09T10:31:47.908Z,76.64
2019-01-09T10:33:58.713Z,76.75
2019-01-09T10:36:09.537Z,76.92
2019-01-09T10:38:20.434Z,76.67
2019-01-09T10:40:36.067Z,76.76
2019-01-09T10:42:44.233Z,76.94
2019-01-09T10:44:55.083Z,77.08
2019-01-09T10:47:05.913Z,77.40
2019-01-09T10:49:16.712Z,77.57
2019-01-09T10:51:27.627Z,77.33
2019-01-09T10:53:38.426Z,76.62
2019-01-09T10:55:49.244Z,77.34
2019-01-09T10:58:00.170Z,78.57
2019-01-09T11:00:52.618Z,78.37
2019-01-09T11:03:03.654Z,78.52
2019-01-09T11:05:14.846Z,78.59
2019-01-09T11:07:25.834Z,78.61
2019-01-09T11:09:36.663Z,79.16
2019-01-09T11:11:47.482Z,79.16
2019-01-09T11:13:58.279Z,79.46
2019-01-09T11:16:09.165Z,79.21
2019-01-09T11:18:20.009Z,79.33
2019-01-09T11:20:30.828Z,79.73
2019-01-09T11:22:41.676Z,79.93
2019-01-09T11:24:52.483Z,80.23
2019-01-09T11:27:03.523Z,80.17
2019-01-09T11:29:14.327Z,80.79
2019-01-09T11:31:25.138Z,80.90
2019-01-09T11:33:35.967Z,81.08
2019-01-09T11:35:46.755Z,80.94
2019-01-09T11:37:57.571Z,80.66
2019-01-09T11:40:50.029Z,80.97
2019-01-09T11:43:00.953Z,81.46
2019-01-09T11:45:53.408Z,81.59
2019-01-09T11:48:04.228Z,81.85
2019-01-09T11:50:56.694Z,82.09
2019-01-09T11:53:07.502Z,82.27
2019-01-09T11:55:18.334Z,82.61
2019-01-09T11:57:29.287Z,82.71
2019-01-09T11:59:40.113Z,83.04
2019-01-09T12:01:50.919Z,83.52
2019-01-09T12:04:01.752Z,84.04
2019-01-09T12:06:12.543Z,83.49
2019-01-09T12:08:23.379Z,83.55
2019-01-09T12:10:34.293Z,84.01
2019-01-09T12:12:45.094Z,84.73
2019-01-09T12:14:55.923Z,85.04
2019-01-09T12:17:06.728Z,84.94
2019-01-09T12:19:17.562Z,84.24
2019-01-09T12:21:28.366Z,83.71
2019-01-09T12:23:39.157Z,82.72
2019-01-09T12:25:49.991Z,82.50
2019-01-09T12:28:00.791Z,82.17
2019-01-09T12:30:31.528Z,82.24
2019-01-09T12:32:42.336Z,82.21
2019-01-09T12:34:53.168Z,81.92
2019-01-09T12:37:03.982Z,81.47
2019-01-09T12:39:14.785Z,80.24
2019-01-09T12:41:25.708Z,80.10
2019-01-09T12:43:36.494Z,80.57
2019-01-09T12:45:47.333Z,80.30
2019-01-09T12:47:58.137Z,80.38
2019-01-09T12:50:50.611Z,80.04
2019-01-09T12:53:01.400Z,79.71
2019-01-09T12:55:12.248Z,79.02
2019-01-09T12:57:23.085Z,79.46
2019-01-09T12:59:33.907Z,80.02
2019-01-09T13:01:44.725Z,79.46
2019-01-09T13:03:55.537Z,79.81
2019-01-09T13:06:06.452Z,80.35
2019-01-09T13:08:17.261Z,80.41
2019-01-09T13:10:28.059Z,80.10
2019-01-09T13:13:20.534Z,79.65
2019-01-09T13:15:31.315Z,79.76
2019-01-09T13:17:42.150Z,79.35
2019-01-09T13:19:52.958Z,78.57
2019-01-09T13:22:03.776Z,78.16
2019-01-09T13:24:14.583Z,78.10
2019-01-09T13:26:25.391Z,78.58
2019-01-09T13:28:36.237Z,78.45
2019-01-09T13:30:47.066Z,79.06
2019-01-09T13:32:57.922Z,78.79
2019-01-09T13:35:08.714Z,79.39
2019-01-09T13:37:19.710Z,79.78
2019-01-09T13:39:31.102Z,79.21
2019-01-09T13:41:43.235Z,79.19
2019-01-09T13:43:54.095Z,79.92
2019-01-09T13:46:04.897Z,79.85
2019-01-09T13:48:15.908Z,80.50
2019-01-09T13:50:26.691Z,80.91
2019-01-09T13:52:37.597Z,81.07
2019-01-09T13:54:48.457Z,80.53
2019-01-09T13:56:59.243Z,80.76
2019-01-09T13:59:10.074Z,80.79
2019-01-09T14:01:20.896Z,80.42
2019-01-09T14:03:31.718Z,80.61
2019-01-09T14:05:42.537Z,81.19
2019-01-09T14:07:53.360Z,81.63
2019-01-09T14:10:45.822Z,81.14
2019-01-09T14:12:56.646Z,81.46
2019-01-09T14:15:49.085Z,82.09
2019-01-09T14:17:59.983Z,82.71
2019-01-09T14:20:52.470Z,83.08
2019-01-09T14:23:03.408Z,83.27
2019-01-09T14:25:55.877Z,83.03
2019-01-09T14:28:06.669Z,82.29
2019-01-09T14:30:59.144Z,81.65
2019-01-09T14:33:09.969Z,80.85
2019-01-09T14:35:20.881Z,80.06
2019-01-09T14:37:31.712Z,80.06
2019-01-09T14:39:48.032Z,80.58
2019-01-09T14:41:55.256Z,79.93
2019-01-09T14:44:06.074Z,78.99
2019-01-09T14:46:16.887Z,79.16
2019-01-09T14:48:27.693Z,79.16
2019-01-09T14:50:38.530Z,78.78
2019-01-09T14:52:49.321Z,78.23
2019-01-09T14:55:00.209Z,78.24
2019-01-09T14:57:11.069Z,75.57
2019-01-09T14:59:21.867Z,76.40
2019-01-09T15:01:32.699Z,77.07
2019-01-09T15:03:43.535Z,76.72
2019-01-09T15:05:54.329Z,77.29
2019-01-09T15:08:05.118Z,78.06
2019-01-09T15:10:57.573Z,78.39
2019-01-09T15:13:08.376Z,78.48
2019-01-09T15:15:19.301Z,78.96
2019-01-09T15:17:30.134Z,79.38
2019-01-09T15:19:40.931Z,79.90
2019-01-09T15:21:51.758Z,80.02
2019-01-09T15:24:08.393Z,80.53
2019-01-09T15:26:15.492Z,81.06
2019-01-09T15:28:26.301Z,81.64
2019-01-09T15:30:37.212Z,82.17
2019-01-09T15:32:48.042Z,82.38
2019-01-09T15:34:58.849Z,82.44
2019-01-09T15:37:09.676Z,82.48
2019-01-09T15:39:20.503Z,82.75
2019-01-09T15:41:31.338Z,82.85
2019-01-09T15:43:42.159Z,83.25
2019-01-09T15:45:52.980Z,83.05
2019-01-09T15:48:03.908Z,83.06
2019-01-09T15:50:34.590Z,83.47
2019-01-09T15:52:45.439Z,83.76
2019-01-09T15:54:56.273Z,83.81
2019-01-09T15:57:07.110Z,85.56
2019-01-09T15:59:17.946Z,88.68
2019-01-09T16:01:28.743Z,85.99
2019-01-09T16:03:39.548Z,80.87
2019-01-09T16:05:50.365Z,79.21
2019-01-09T16:08:01.206Z,78.67
2019-01-09T16:10:53.671Z,79.12
2019-01-09T16:13:04.518Z,79.36
2019-01-09T16:15:56.981Z,80.19
2019-01-09T16:18:07.945Z,80.85
2019-01-09T16:21:00.377Z,81.83
2019-01-09T16:23:11.317Z,82.05
2019-01-09T16:25:22.113Z,82.48
2019-01-09T16:27:32.921Z,82.91
2019-01-09T16:29:43.758Z,83.35
2019-01-09T16:31:54.612Z,83.77
2019-01-09T16:34:05.426Z,84.10
2019-01-09T16:36:16.241Z,84.09
2019-01-09T16:38:27.035Z,84.35
2019-01-09T16:40:37.857Z,84.64
2019-01-09T16:42:48.665Z,84.74
2019-01-09T16:44:59.496Z,84.96
2019-01-09T16:47:10.348Z,85.19
2019-01-09T16:49:27.892Z,85.34
2019-01-09T16:51:33.843Z,85.40
2019-01-09T16:53:44.667Z,85.58
2019-01-09T16:55:55.498Z,85.72
2019-01-09T16:58:06.386Z,85.86
2019-01-09T17:00:38.091Z,85.95
2019-01-09T17:02:49.009Z,86.05
2019-01-09T17:04:59.820Z,86.17
2019-01-09T17:07:10.742Z,86.16
2019-01-09T17:09:21.570Z,86.26
2019-01-09T17:11:32.406Z,86.17
2019-01-09T17:13:43.213Z,86.17
2019-01-09T17:15:54.164Z,86.23
2019-01-09T17:18:05.071Z,86.25
2019-01-09T17:20:35.739Z,86.18
2019-01-09T17:22:46.656Z,86.69
2019-01-09T17:24:57.602Z,86.87
2019-01-09T17:27:08.429Z,86.81
2019-01-09T17:29:19.236Z,86.75
2019-01-09T17:31:30.082Z,86.75
2019-01-09T17:33:40.915Z,86.65
2019-01-09T17:35:51.954Z,86.44
2019-01-09T17:38:04.682Z,86.37
2019-01-09T17:40:57.479Z,86.52
2019-01-09T17:43:08.330Z,86.22
2019-01-09T17:45:19.353Z,86.39
2019-01-09T17:47:30.169Z,86.70
2019-01-09T17:49:41.076Z,86.55
2019-01-09T17:51:51.904Z,86.58
2019-01-09T17:54:03.044Z,86.88
2019-01-09T17:56:13.999Z,87.04
2019-01-09T17:58:24.876Z,86.97
2019-01-09T18:01:17.321Z,87.19
2019-01-09T18:03:28.156Z,87.35
2019-01-09T18:05:38.966Z,87.27
2019-01-09T18:07:51.981Z,87.16
2019-01-09T18:10:50.018Z,87.35
2019-01-09T18:12:56.997Z,87.44
2019-01-09T18:15:31.498Z,86.65
2019-01-09T18:17:42.315Z,86.88
2019-01-09T18:19:53.145Z,87.16
2019-01-09T18:22:03.945Z,87.17
2019-01-09T18:24:14.794Z,87.17
2019-01-09T18:26:25.697Z,87.13
2019-01-09T18:28:36.537Z,87.26
2019-01-09T18:31:30.914Z,87.25
2019-01-09T18:34:23.385Z,87.33
2019-01-09T18:37:15.817Z,87.59
2019-01-09T18:40:08.289Z,87.57
2019-01-09T18:42:58.882Z,87.48
2019-01-09T18:45:51.364Z,87.54
2019-01-09T18:48:43.821Z,87.59
2019-01-09T18:51:36.392Z,87.48
2019-01-09T18:53:47.303Z,87.29
2019-01-09T18:55:58.169Z,87.13
2019-01-09T18:58:08.972Z,87.10
2019-01-09T19:01:01.481Z,87.11
2019-01-09T19:03:12.275Z,87.20
2019-01-09T19:05:23.210Z,87.26
2019-01-09T19:07:34.202Z,87.35
2019-01-09T19:09:45.113Z,87.31
2019-01-09T19:11:55.968Z,87.44
2019-01-09T19:14:06.867Z,87.46
2019-01-09T19:16:17.915Z,87.52
2019-01-09T19:18:28.943Z,87.53
2019-01-09T19:20:39.869Z,87.53
2019-01-09T19:22:50.726Z,87.40
2019-01-09T19:27:53.799Z,87.21
2019-01-09T19:30:46.235Z,87.27
2019-01-09T19:32:57.069Z,87.32
2019-01-09T19:35:49.540Z,87.29
2019-01-09T19:38:00.455Z,87.36
2019-01-09T19:40:11.473Z,87.61
2019-01-09T19:42:22.363Z,87.79
2019-01-09T19:44:33.228Z,87.77
2019-01-09T19:46:44.018Z,87.67
2019-01-09T19:48:54.949Z,87.65
2019-01-09T19:51:47.411Z,87.60
2019-01-09T19:53:58.341Z,87.64
2019-01-09T19:56:09.419Z,87.81
2019-01-09T19:58:20.285Z,87.85
2019-01-09T20:00:31.222Z,87.90
2019-01-09T20:02:42.241Z,87.89
2019-01-09T20:04:53.065Z,87.81
2019-01-09T20:07:03.995Z,87.78
2019-01-09T20:09:14.938Z,87.86
2019-01-09T20:11:26.461Z,87.99
2019-01-09T20:13:38.632Z,87.95
2019-01-09T20:15:49.575Z,88.02
2019-01-09T20:18:00.619Z,88.11
2019-01-09T20:20:53.108Z,87.98
2019-01-09T20:23:03.998Z,87.95
2019-01-09T20:25:14.933Z,88.02
2019-01-09T20:27:25.757Z,87.91
2019-01-09T20:29:36.673Z,87.77
2019-01-09T20:31:47.505Z,87.88
2019-01-09T20:33:58.471Z,87.96
2019-01-09T20:36:09.346Z,87.83
2019-01-09T20:38:20.331Z,87.81
2019-01-09T20:40:31.232Z,87.81
2019-01-09T20:42:42.140Z,87.76
2019-01-09T20:44:53.148Z,87.54
2019-01-09T20:47:04.050Z,87.54
2019-01-09T20:49:14.833Z,87.48
2019-01-09T20:51:25.751Z,87.40
2019-01-09T20:53:36.532Z,87.29
2019-01-09T20:55:47.482Z,87.24
2019-01-09T20:57:58.442Z,87.12
2019-01-09T21:00:29.182Z,87.18
2019-01-09T21:02:40.085Z,87.23
2019-01-09T21:04:51.038Z,87.15
2019-01-09T21:09:20.896Z,87.00
2019-01-09T21:11:31.773Z,86.92
2019-01-09T21:13:42.520Z,86.69
2019-01-09T21:15:53.498Z,86.49
2019-01-09T21:18:45.925Z,86.23
2019-01-09T21:20:56.832Z,86.08
2019-01-09T21:23:07.823Z,85.86
2019-01-09T21:25:18.870Z,85.83
2019-01-09T21:27:29.679Z,85.78
2019-01-09T21:29:40.488Z,85.72
2019-01-09T21:31:51.322Z,85.81
2019-01-09T21:34:02.236Z,85.83
2019-01-09T21:36:13.134Z,85.69
2019-01-09T21:38:23.938Z,85.58
2019-01-09T21:40:34.758Z,85.42
2019-01-09T21:42:45.611Z,85.15
2019-01-09T21:44:56.445Z,84.61
2019-01-09T21:47:07.260Z,84.02
2019-01-09T21:49:18.060Z,83.94
2019-01-09T21:51:28.856Z,84.03
2019-01-09T21:53:39.788Z,84.17
2019-01-09T21:55:50.590Z,84.39
2019-01-09T21:58:01.521Z,84.56
2019-01-09T22:00:53.971Z,84.71
2019-01-09T22:03:04.984Z,84.69
2019-01-09T22:05:57.441Z,84.34
2019-01-09T22:08:08.381Z,84.23
2019-01-09T22:10:39.035Z,84.22
2019-01-09T22:12:49.825Z,83.76
2019-01-09T22:15:00.647Z,84.16
2019-01-09T22:17:11.541Z,84.47
2019-01-09T22:19:22.472Z,84.62
2019-01-09T22:21:33.265Z,84.56
2019-01-09T22:23:44.075Z,84.72
2019-01-09T22:25:54.874Z,84.94
2019-01-09T22:30:38.336Z,85.26
2019-01-09T22:32:49.260Z,85.21
2019-01-09T22:35:00.223Z,85.27
2019-01-09T22:37:11.016Z,85.40
2019-01-09T22:39:21.868Z,85.62
2019-01-09T22:41:32.689Z,85.62
2019-01-09T22:43:43.525Z,85.67
2019-01-09T22:45:54.338Z,85.82
2019-01-09T22:48:05.134Z,85.97
2019-01-09T22:50:57.616Z,86.03
2019-01-09T22:53:08.443Z,86.10
2019-01-09T22:55:19.255Z,86.42
2019-01-09T22:57:30.038Z,86.61
2019-01-09T22:59:40.854Z,86.65
2019-01-09T23:01:51.670Z,86.56
2019-01-09T23:04:44.136Z,86.64
2019-01-09T23:06:55.062Z,86.69
2019-01-09T23:09:47.526Z,86.81
2019-01-09T23:11:58.552Z,86.85
2019-01-09T23:14:09.348Z,87.09
2019-01-09T23:16:20.137Z,87.10
2019-01-09T23:18:31.091Z,87.04
2019-01-09T23:20:41.996Z,87.20
2019-01-09T23:22:52.815Z,87.42
2019-01-09T23:25:45.274Z,87.45
2019-01-09T23:27:56.090Z,87.62
2019-01-09T23:30:48.542Z,87.77
2019-01-09T23:32:59.398Z,87.89
2019-01-09T23:35:51.851Z,87.93
2019-01-09T23:38:02.706Z,88.06
2019-01-09T23:40:55.125Z,88.19
2019-01-09T23:43:05.990Z,88.37
2019-01-09T23:45:16.774Z,88.29
2019-01-09T23:47:27.584Z,88.23
2019-01-09T23:49:38.403Z,88.29
2019-01-09T23:51:49.199Z,88.32
2019-01-09T23:54:00.014Z,88.47
2019-01-09T23:56:10.845Z,88.42
2019-01-09T23:58:21.682Z,88.12
